sensor_id;sensor_type;location;lat;lon;timestamp;pressure;altitude;pressure_sealevel;temperature;humidity
71948;BME280;63257;55.082;38.772;2022-09-09T00:03:47;100511.38;;;6.34;78.44
71948;BME280;63257;55.082;38.772;2022-09-09T00:06:35;100510.63;;;6.28;78.37
71948;BME280;63257;55.082;38.772;2022-09-09T00:11:46;100515.06;;;6.26;78.42
71948;BME280;63257;55.082;38.772;2022-09-09T00:15:19;100528.25;;;6.23;78.41
71948;BME280;63257;55.082;38.772;2022-09-09T00:17:35;100521.44;;;6.16;78.89
71948;BME280;63257;55.082;38.772;2022-09-09T00:20:12;100527.53;;;6.18;79.16
71948;BME280;63257;55.082;38.772;2022-09-09T00:22:54;100525.84;;;6.16;78.72
71948;BME280;63257;55.082;38.772;2022-09-09T00:28:37;100531.13;;;6.14;78.59
71948;BME280;63257;55.082;38.772;2022-09-09T00:31:13;100531.19;;;6.11;78.48
71948;BME280;63257;55.082;38.772;2022-09-09T00:33:40;100533.84;;;6.09;78.95
71948;BME280;63257;55.082;38.772;2022-09-09T00:36:18;100520.06;;;6.01;79.21
71948;BME280;63257;55.082;38.772;2022-09-09T00:38:50;100545.22;;;6.08;79.55
71948;BME280;63257;55.082;38.772;2022-09-09T00:55:07;100525.50;;;5.92;79.46
71948;BME280;63257;55.082;38.772;2022-09-09T00:57:38;100538.56;;;5.95;79.44
71948;BME280;63257;55.082;38.772;2022-09-09T01:00:25;100515.31;;;5.81;79.15
71948;BME280;63257;55.082;38.772;2022-09-09T01:06:00;100566.31;;;6.04;78.60
71948;BME280;63257;55.082;38.772;2022-09-09T01:08:43;100542.75;;;6.02;79.26
71948;BME280;63257;55.082;38.772;2022-09-09T01:11:24;100567.88;;;6.11;78.57
71948;BME280;63257;55.082;38.772;2022-09-09T01:14:10;100559.06;;;6.14;78.79
71948;BME280;63257;55.082;38.772;2022-09-09T01:16:40;100561.78;;;6.10;78.96
71948;BME280;63257;55.082;38.772;2022-09-09T01:19:10;100569.56;;;6.14;78.73
71948;BME280;63257;55.082;38.772;2022-09-09T01:22:02;100566.97;;;6.12;78.52
71948;BME280;63257;55.082;38.772;2022-09-09T01:24:45;100569.81;;;6.03;79.44
71948;BME280;63257;55.082;38.772;2022-09-09T01:27:23;100555.91;;;6.01;79.27
71948;BME280;63257;55.082;38.772;2022-09-09T01:29:51;100574.84;;;6.12;78.84
71948;BME280;63257;55.082;38.772;2022-09-09T01:32:38;100581.81;;;6.13;78.94
71948;BME280;63257;55.082;38.772;2022-09-09T01:35:09;100583.69;;;6.08;79.01
71948;BME280;63257;55.082;38.772;2022-09-09T01:37:37;100575.00;;;6.04;78.10
71948;BME280;63257;55.082;38.772;2022-09-09T01:40:05;100579.28;;;6.08;78.63
71948;BME280;63257;55.082;38.772;2022-09-09T01:42:33;100589.63;;;6.15;78.36
71948;BME280;63257;55.082;38.772;2022-09-09T01:44:59;100582.75;;;6.10;78.33
71948;BME280;63257;55.082;38.772;2022-09-09T01:47:25;100586.28;;;6.08;78.58
71948;BME280;63257;55.082;38.772;2022-09-09T01:50:16;100580.25;;;6.04;78.53
71948;BME280;63257;55.082;38.772;2022-09-09T01:52:45;100594.88;;;6.15;78.33
71948;BME280;63257;55.082;38.772;2022-09-09T01:55:15;100567.31;;;5.98;78.63
71948;BME280;63257;55.082;38.772;2022-09-09T02:00:21;100592.25;;;6.15;78.15
71948;BME280;63257;55.082;38.772;2022-09-09T02:05:44;100592.28;;;6.13;78.08
71948;BME280;63257;55.082;38.772;2022-09-09T02:08:38;100605.22;;;6.19;78.43
71948;BME280;63257;55.082;38.772;2022-09-09T02:11:18;100610.47;;;6.19;78.32
71948;BME280;63257;55.082;38.772;2022-09-09T02:14:06;100599.28;;;6.13;78.76
71948;BME280;63257;55.082;38.772;2022-09-09T02:19:18;100551.16;;;5.79;78.24
71948;BME280;63257;55.082;38.772;2022-09-09T02:22:04;100594.91;;;6.13;78.44
71948;BME280;63257;55.082;38.772;2022-09-09T02:24:35;100603.44;;;6.21;78.27
71948;BME280;63257;55.082;38.772;2022-09-09T02:27:23;100613.13;;;6.18;78.05
71948;BME280;63257;55.082;38.772;2022-09-09T02:29:51;100577.22;;;5.85;78.22
71948;BME280;63257;55.082;38.772;2022-09-09T02:32:34;100618.28;;;6.22;78.55
71948;BME280;63257;55.082;38.772;2022-09-09T02:35:08;100614.06;;;6.15;78.10
71948;BME280;63257;55.082;38.772;2022-09-09T02:37:38;100601.09;;;6.10;78.47
71948;BME280;63257;55.082;38.772;2022-09-09T02:40:07;100601.13;;;6.09;77.56
71948;BME280;63257;55.082;38.772;2022-09-09T02:42:44;100617.50;;;6.19;78.63
71948;BME280;63257;55.082;38.772;2022-09-09T02:45:15;100625.50;;;6.13;78.23
71948;BME280;63257;55.082;38.772;2022-09-09T02:47:47;100635.22;;;6.09;79.07
71948;BME280;63257;55.082;38.772;2022-09-09T02:53:20;100635.47;;;5.97;78.94
71948;BME280;63257;55.082;38.772;2022-09-09T02:58:31;100646.78;;;5.99;78.98
71948;BME280;63257;55.082;38.772;2022-09-09T03:01:02;100647.59;;;6.02;78.58
71948;BME280;63257;55.082;38.772;2022-09-09T03:03:30;100615.38;;;5.95;79.29
71948;BME280;63257;55.082;38.772;2022-09-09T03:06:00;100633.50;;;6.06;78.04
71948;BME280;63257;55.082;38.772;2022-09-09T03:08:27;100647.38;;;6.11;78.81
71948;BME280;63257;55.082;38.772;2022-09-09T03:10:55;100624.94;;;6.00;78.62
71948;BME280;63257;55.082;38.772;2022-09-09T03:13:21;100652.75;;;6.05;79.02
71948;BME280;63257;55.082;38.772;2022-09-09T03:15:48;100646.75;;;6.02;78.50
71948;BME280;63257;55.082;38.772;2022-09-09T03:18:18;100655.25;;;6.11;78.47
71948;BME280;63257;55.082;38.772;2022-09-09T03:20:48;100642.44;;;5.99;78.61
71948;BME280;63257;55.082;38.772;2022-09-09T03:23:15;100655.34;;;6.07;78.63
71948;BME280;63257;55.082;38.772;2022-09-09T03:25:49;100635.41;;;6.00;78.81
71948;BME280;63257;55.082;38.772;2022-09-09T03:28:18;100654.28;;;6.16;78.70
71948;BME280;63257;55.082;38.772;2022-09-09T03:30:47;100658.78;;;6.09;78.32
71948;BME280;63257;55.082;38.772;2022-09-09T03:33:14;100659.59;;;6.11;78.54
71948;BME280;63257;55.082;38.772;2022-09-09T03:35:46;100657.22;;;6.00;78.63
71948;BME280;63257;55.082;38.772;2022-09-09T03:38:17;100672.72;;;6.11;78.50
71948;BME280;63257;55.082;38.772;2022-09-09T03:40:53;100657.91;;;6.08;79.21
71948;BME280;63257;55.082;38.772;2022-09-09T03:43:24;100673.56;;;6.13;78.70
71948;BME280;63257;55.082;38.772;2022-09-09T03:45:53;100682.06;;;6.23;78.57
71948;BME280;63257;55.082;38.772;2022-09-09T03:48:24;100688.22;;;6.20;78.28
71948;BME280;63257;55.082;38.772;2022-09-09T03:50:53;100680.31;;;6.22;78.61
71948;BME280;63257;55.082;38.772;2022-09-09T03:53:21;100691.75;;;6.19;78.39
71948;BME280;63257;55.082;38.772;2022-09-09T03:55:50;100683.09;;;6.16;78.61
71948;BME280;63257;55.082;38.772;2022-09-09T03:58:22;100698.75;;;6.19;79.35
71948;BME280;63257;55.082;38.772;2022-09-09T04:01:10;100698.16;;;6.07;79.37
71948;BME280;63257;55.082;38.772;2022-09-09T04:03:37;100699.16;;;6.02;79.46
71948;BME280;63257;55.082;38.772;2022-09-09T04:06:04;100710.53;;;6.01;79.89
71948;BME280;63257;55.082;38.772;2022-09-09T04:08:33;100710.78;;;5.87;80.49
71948;BME280;63257;55.082;38.772;2022-09-09T04:11:03;100713.59;;;5.77;80.23
71948;BME280;63257;55.082;38.772;2022-09-09T04:13:35;100726.69;;;5.77;80.67
71948;BME280;63257;55.082;38.772;2022-09-09T04:16:04;100718.00;;;5.75;81.11
71948;BME280;63257;55.082;38.772;2022-09-09T04:18:31;100715.47;;;5.71;81.07
71948;BME280;63257;55.082;38.772;2022-09-09T04:20:58;100720.69;;;5.72;80.89
71948;BME280;63257;55.082;38.772;2022-09-09T04:23:28;100725.25;;;5.63;80.93
71948;BME280;63257;55.082;38.772;2022-09-09T04:25:59;100721.72;;;5.65;81.58
71948;BME280;63257;55.082;38.772;2022-09-09T04:28:28;100727.88;;;5.63;81.44
71948;BME280;63257;55.082;38.772;2022-09-09T04:30:54;100716.59;;;5.59;81.98
71948;BME280;63257;55.082;38.772;2022-09-09T04:33:25;100730.63;;;5.56;81.34
71948;BME280;63257;55.082;38.772;2022-09-09T04:35:52;100711.59;;;5.47;81.54
71948;BME280;63257;55.082;38.772;2022-09-09T04:38:21;100727.13;;;5.56;81.64
71948;BME280;63257;55.082;38.772;2022-09-09T04:40:52;100729.69;;;5.60;81.68
71948;BME280;63257;55.082;38.772;2022-09-09T04:43:20;100727.97;;;5.58;81.36
71948;BME280;63257;55.082;38.772;2022-09-09T04:45:48;100711.72;;;5.40;81.41
71948;BME280;63257;55.082;38.772;2022-09-09T04:48:15;100731.59;;;5.52;80.89
71948;BME280;63257;55.082;38.772;2022-09-09T04:50:42;100736.00;;;5.49;81.05
71948;BME280;63257;55.082;38.772;2022-09-09T04:53:10;100733.25;;;5.55;81.17
71948;BME280;63257;55.082;38.772;2022-09-09T04:55:37;100723.84;;;5.46;80.46
71948;BME280;63257;55.082;38.772;2022-09-09T04:58:05;100747.09;;;5.61;80.98
71948;BME280;63257;55.082;38.772;2022-09-09T05:00:32;100749.50;;;5.72;81.08
71948;BME280;63257;55.082;38.772;2022-09-09T05:02:58;100733.03;;;5.66;80.74
71948;BME280;63257;55.082;38.772;2022-09-09T05:05:28;100752.00;;;5.78;79.77
71948;BME280;63257;55.082;38.772;2022-09-09T05:07:54;100749.28;;;5.83;79.16
71948;BME280;63257;55.082;38.772;2022-09-09T05:10:20;100741.25;;;5.92;78.99
71948;BME280;63257;55.082;38.772;2022-09-09T05:12:56;100747.22;;;6.01;78.60
71948;BME280;63257;55.082;38.772;2022-09-09T05:15:25;100735.88;;;5.99;78.56
71948;BME280;63257;55.082;38.772;2022-09-09T05:17:51;100757.50;;;6.08;78.27
71948;BME280;63257;55.082;38.772;2022-09-09T05:20:22;100762.78;;;6.07;77.84
71948;BME280;63257;55.082;38.772;2022-09-09T05:22:48;100761.84;;;6.09;78.12
71948;BME280;63257;55.082;38.772;2022-09-09T05:25:15;100760.66;;;6.24;78.61
71948;BME280;63257;55.082;38.772;2022-09-09T05:27:41;100764.81;;;6.35;78.34
71948;BME280;63257;55.082;38.772;2022-09-09T05:30:07;100766.41;;;6.42;77.97
71948;BME280;63257;55.082;38.772;2022-09-09T05:32:34;100765.50;;;6.43;76.78
71948;BME280;63257;55.082;38.772;2022-09-09T05:35:01;100764.53;;;6.47;75.96
71948;BME280;63257;55.082;38.772;2022-09-09T05:37:28;100763.50;;;6.54;76.33
71948;BME280;63257;55.082;38.772;2022-09-09T05:39:55;100760.56;;;6.67;76.24
71948;BME280;63257;55.082;38.772;2022-09-09T05:42:21;100772.56;;;6.77;75.44
71948;BME280;63257;55.082;38.772;2022-09-09T05:44:47;100770.06;;;6.72;74.40
71948;BME280;63257;55.082;38.772;2022-09-09T05:47:14;100764.84;;;6.71;74.20
71948;BME280;63257;55.082;38.772;2022-09-09T05:49:41;100786.44;;;6.82;74.73
71948;BME280;63257;55.082;38.772;2022-09-09T05:52:07;100772.34;;;6.86;73.52
71948;BME280;63257;55.082;38.772;2022-09-09T05:54:33;100766.00;;;6.95;73.35
71948;BME280;63257;55.082;38.772;2022-09-09T05:57:00;100768.44;;;7.03;73.49
71948;BME280;63257;55.082;38.772;2022-09-09T05:59:26;100777.53;;;7.22;73.65
71948;BME280;63257;55.082;38.772;2022-09-09T06:01:55;100781.66;;;7.33;73.30
71948;BME280;63257;55.082;38.772;2022-09-09T06:04:30;100778.16;;;7.34;71.68
71948;BME280;63257;55.082;38.772;2022-09-09T06:06:59;100759.88;;;7.29;69.92
71948;BME280;63257;55.082;38.772;2022-09-09T06:09:25;100775.25;;;7.43;69.34
71948;BME280;63257;55.082;38.772;2022-09-09T06:11:51;100786.16;;;7.60;69.87
71948;BME280;63257;55.082;38.772;2022-09-09T06:14:19;100767.53;;;7.70;70.15
71948;BME280;63257;55.082;38.772;2022-09-09T06:16:48;100789.19;;;7.78;67.69
71948;BME280;63257;55.082;38.772;2022-09-09T06:19:18;100779.59;;;7.77;66.09
71948;BME280;63257;55.082;38.772;2022-09-09T06:21:46;100776.84;;;7.80;67.00
71948;BME280;63257;55.082;38.772;2022-09-09T06:24:13;100785.31;;;7.91;66.04
71948;BME280;63257;55.082;38.772;2022-09-09T06:26:43;100785.13;;;7.97;64.73
71948;BME280;63257;55.082;38.772;2022-09-09T06:29:14;100770.88;;;8.05;64.82
71948;BME280;63257;55.082;38.772;2022-09-09T06:31:42;100792.06;;;8.30;65.60
71948;BME280;63257;55.082;38.772;2022-09-09T06:34:18;100787.63;;;8.32;64.74
71948;BME280;63257;55.082;38.772;2022-09-09T06:36:48;100781.31;;;8.38;65.31
71948;BME280;63257;55.082;38.772;2022-09-09T06:39:15;100786.38;;;8.45;63.35
71948;BME280;63257;55.082;38.772;2022-09-09T06:41:42;100797.97;;;8.66;63.01
71948;BME280;63257;55.082;38.772;2022-09-09T06:44:21;100790.84;;;8.70;60.14
71948;BME280;63257;55.082;38.772;2022-09-09T06:46:48;100795.28;;;8.70;60.58
71948;BME280;63257;55.082;38.772;2022-09-09T06:49:15;100789.56;;;8.83;60.59
71948;BME280;63257;55.082;38.772;2022-09-09T06:51:41;100793.53;;;8.95;57.45
71948;BME280;63257;55.082;38.772;2022-09-09T06:54:12;100804.38;;;9.13;57.43
71948;BME280;63257;55.082;38.772;2022-09-09T06:56:44;100800.63;;;9.20;53.50
71948;BME280;63257;55.082;38.772;2022-09-09T06:59:21;100813.50;;;9.29;53.12
71948;BME280;63257;55.082;38.772;2022-09-09T07:01:47;100818.75;;;9.55;52.08
71948;BME280;63257;55.082;38.772;2022-09-09T07:04:14;100811.63;;;9.58;50.32
71948;BME280;63257;55.082;38.772;2022-09-09T07:06:45;100802.16;;;9.53;50.66
71948;BME280;63257;55.082;38.772;2022-09-09T07:09:15;100801.59;;;9.68;49.32
71948;BME280;63257;55.082;38.772;2022-09-09T07:11:50;100814.97;;;9.87;49.08
71948;BME280;63257;55.082;38.772;2022-09-09T07:14:21;100813.03;;;9.92;49.41
71948;BME280;63257;55.082;38.772;2022-09-09T07:16:53;100805.97;;;9.93;49.48
71948;BME280;63257;55.082;38.772;2022-09-09T07:19:19;100812.41;;;10.09;49.00
71948;BME280;63257;55.082;38.772;2022-09-09T07:21:50;100828.28;;;10.08;47.74
71948;BME280;63257;55.082;38.772;2022-09-09T07:24:18;100830.72;;;10.14;48.41
71948;BME280;63257;55.082;38.772;2022-09-09T07:26:45;100824.28;;;10.21;48.16
71948;BME280;63257;55.082;38.772;2022-09-09T07:29:12;100832.28;;;10.43;47.90
71948;BME280;63257;55.082;38.772;2022-09-09T07:31:41;100815.91;;;10.33;47.02
71948;BME280;63257;55.082;38.772;2022-09-09T07:34:12;100839.53;;;10.60;45.96
71948;BME280;63257;55.082;38.772;2022-09-09T07:36:40;100810.31;;;10.65;44.56
71948;BME280;63257;55.082;38.772;2022-09-09T07:39:11;100825.59;;;11.01;44.37
71948;BME280;63257;55.082;38.772;2022-09-09T07:41:42;100829.28;;;11.40;43.57
71948;BME280;63257;55.082;38.772;2022-09-09T07:44:15;100836.47;;;11.36;42.27
71948;BME280;63257;55.082;38.772;2022-09-09T07:46:43;100830.25;;;11.58;43.35
71948;BME280;63257;55.082;38.772;2022-09-09T07:49:14;100831.16;;;11.77;42.42
71948;BME280;63257;55.082;38.772;2022-09-09T07:51:43;100830.31;;;11.77;43.50
71948;BME280;63257;55.082;38.772;2022-09-09T07:54:13;100835.38;;;11.62;43.59
71948;BME280;63257;55.082;38.772;2022-09-09T07:56:43;100832.75;;;11.61;42.95
71948;BME280;63257;55.082;38.772;2022-09-09T07:59:10;100839.69;;;11.63;43.20
71948;BME280;63257;55.082;38.772;2022-09-09T08:01:48;100839.47;;;11.49;42.79
71948;BME280;63257;55.082;38.772;2022-09-09T08:04:19;100837.28;;;11.38;43.16
71948;BME280;63257;55.082;38.772;2022-09-09T08:06:52;100846.13;;;11.58;44.24
71948;BME280;63257;55.082;38.772;2022-09-09T08:09:21;100842.78;;;11.54;43.84
71948;BME280;63257;55.082;38.772;2022-09-09T08:11:50;100842.28;;;11.65;44.04
71948;BME280;63257;55.082;38.772;2022-09-09T08:14:17;100844.75;;;11.49;44.34
71948;BME280;63257;55.082;38.772;2022-09-09T08:16:47;100850.69;;;11.54;45.46
71948;BME280;63257;55.082;38.772;2022-09-09T08:19:16;100847.19;;;11.11;45.36
71948;BME280;63257;55.082;38.772;2022-09-09T08:21:44;100832.00;;;10.95;45.42
71948;BME280;63257;55.082;38.772;2022-09-09T08:24:11;100857.56;;;11.15;46.06
71948;BME280;63257;55.082;38.772;2022-09-09T08:26:40;100845.59;;;11.07;45.84
71948;BME280;63257;55.082;38.772;2022-09-09T08:29:11;100859.09;;;11.00;45.87
71948;BME280;63257;55.082;38.772;2022-09-09T08:31:42;100865.97;;;11.05;44.99
71948;BME280;63257;55.082;38.772;2022-09-09T08:34:10;100853.41;;;11.10;45.35
71948;BME280;63257;55.082;38.772;2022-09-09T08:36:42;100857.53;;;11.17;45.29
71948;BME280;63257;55.082;38.772;2022-09-09T08:39:10;100852.13;;;10.98;45.02
71948;BME280;63257;55.082;38.772;2022-09-09T08:49:38;100838.94;;;11.41;43.39
71948;BME280;63257;55.082;38.772;2022-09-09T08:52:15;100855.09;;;11.74;43.63
71948;BME280;63257;55.082;38.772;2022-09-09T08:54:42;100867.19;;;11.80;43.92
71948;BME280;63257;55.082;38.772;2022-09-09T08:57:14;100848.31;;;11.48;43.88
71948;BME280;63257;55.082;38.772;2022-09-09T08:59:44;100874.72;;;11.27;44.62
71948;BME280;63257;55.082;38.772;2022-09-09T09:02:17;100869.31;;;11.08;44.69
71948;BME280;63257;55.082;38.772;2022-09-09T09:12:41;100861.13;;;11.57;45.79
71948;BME280;63257;55.082;38.772;2022-09-09T09:15:16;100854.34;;;11.72;44.13
71948;BME280;63257;55.082;38.772;2022-09-09T09:17:43;100861.91;;;11.80;43.61
71948;BME280;63257;55.082;38.772;2022-09-09T09:20:20;100852.38;;;11.76;43.91
71948;BME280;63257;55.082;38.772;2022-09-09T09:22:51;100864.69;;;11.77;44.98
71948;BME280;63257;55.082;38.772;2022-09-09T09:25:33;100849.75;;;11.96;43.52
71948;BME280;63257;55.082;38.772;2022-09-09T09:28:02;100875.56;;;11.91;43.57
71948;BME280;63257;55.082;38.772;2022-09-09T09:30:42;100874.06;;;11.43;43.01
71948;BME280;63257;55.082;38.772;2022-09-09T09:33:22;100875.03;;;11.19;43.68
71948;BME280;63257;55.082;38.772;2022-09-09T09:35:50;100860.78;;;11.01;43.65
71948;BME280;63257;55.082;38.772;2022-09-09T09:38:20;100851.88;;;11.04;43.52
71948;BME280;63257;55.082;38.772;2022-09-09T09:40:57;100874.13;;;11.41;42.94
71948;BME280;63257;55.082;38.772;2022-09-09T09:43:30;100861.00;;;11.81;42.23
71948;BME280;63257;55.082;38.772;2022-09-09T09:45:59;100863.56;;;12.43;41.05
71948;BME280;63257;55.082;38.772;2022-09-09T09:48:27;100851.97;;;12.45;40.32
71948;BME280;63257;55.082;38.772;2022-09-09T09:50:57;100853.97;;;12.40;40.89
71948;BME280;63257;55.082;38.772;2022-09-09T09:53:30;100878.41;;;12.26;41.19
71948;BME280;63257;55.082;38.772;2022-09-09T09:56:00;100862.72;;;11.82;42.25
71948;BME280;63257;55.082;38.772;2022-09-09T09:58:31;100868.09;;;11.60;43.71
71948;BME280;63257;55.082;38.772;2022-09-09T10:01:00;100879.13;;;11.49;44.49
71948;BME280;63257;55.082;38.772;2022-09-09T10:03:34;100849.38;;;11.64;43.91
71948;BME280;63257;55.082;38.772;2022-09-09T10:06:06;100853.97;;;12.00;43.66
71948;BME280;63257;55.082;38.772;2022-09-09T10:08:43;100859.09;;;12.43;42.24
71948;BME280;63257;55.082;38.772;2022-09-09T10:11:38;100856.75;;;12.56;40.93
71948;BME280;63257;55.082;38.772;2022-09-09T10:14:22;100861.97;;;12.77;40.24
71948;BME280;63257;55.082;38.772;2022-09-09T10:17:08;100869.59;;;12.83;39.77
71948;BME280;63257;55.082;38.772;2022-09-09T10:19:45;100854.44;;;12.67;40.52
71948;BME280;63257;55.082;38.772;2022-09-09T10:22:28;100884.00;;;12.58;39.90
71948;BME280;63257;55.082;38.772;2022-09-09T10:27:58;100879.13;;;12.11;40.84
71948;BME280;63257;55.082;38.772;2022-09-09T10:33:13;100879.88;;;12.71;41.05
71948;BME280;63257;55.082;38.772;2022-09-09T10:38:41;100883.31;;;12.54;39.84
71948;BME280;63257;55.082;38.772;2022-09-09T10:54:40;100883.00;;;12.61;40.04
71948;BME280;63257;55.082;38.772;2022-09-09T10:57:41;100884.41;;;12.87;38.70
71948;BME280;63257;55.082;38.772;2022-09-09T11:02:56;100871.41;;;12.63;39.27
71948;BME280;63257;55.082;38.772;2022-09-09T11:05:27;100884.16;;;12.55;38.77
71948;BME280;63257;55.082;38.772;2022-09-09T11:08:02;100858.91;;;12.67;38.06
71948;BME280;63257;55.082;38.772;2022-09-09T11:10:51;100875.63;;;13.23;38.13
71948;BME280;63257;55.082;38.772;2022-09-09T11:21:50;100871.75;;;12.75;39.56
71948;BME280;63257;55.082;38.772;2022-09-09T11:29:37;100871.75;;;13.65;38.55
71948;BME280;63257;55.082;38.772;2022-09-09T11:32:27;100865.56;;;13.12;39.67
71948;BME280;63257;55.082;38.772;2022-09-09T11:37:52;100888.47;;;12.77;40.40
71948;BME280;63257;55.082;38.772;2022-09-09T11:40:24;100887.38;;;12.62;41.73
71948;BME280;63257;55.082;38.772;2022-09-09T11:43:09;100882.38;;;13.11;39.58
71948;BME280;63257;55.082;38.772;2022-09-09T11:45:40;100881.09;;;13.90;37.14
71948;BME280;63257;55.082;38.772;2022-09-09T11:48:43;100890.06;;;14.38;35.16
71948;BME280;63257;55.082;38.772;2022-09-09T11:53:57;100869.94;;;15.44;31.56
71948;BME280;63257;55.082;38.772;2022-09-09T11:56:42;100866.84;;;16.11;30.79
71948;BME280;63257;55.082;38.772;2022-09-09T12:04:37;100862.28;;;16.28;31.00
71948;BME280;63257;55.082;38.772;2022-09-09T12:12:38;100872.22;;;13.91;36.38
71948;BME280;63257;55.082;38.772;2022-09-09T12:17:48;100873.78;;;13.78;36.67
71948;BME280;63257;55.082;38.772;2022-09-09T12:20:18;100870.09;;;15.11;34.10
71948;BME280;63257;55.082;38.772;2022-09-09T12:25:43;100864.91;;;16.57;31.19
71948;BME280;63257;55.082;38.772;2022-09-09T12:30:55;100850.84;;;15.52;31.98
71948;BME280;63257;55.082;38.772;2022-09-09T12:33:23;100870.31;;;14.76;33.42
71948;BME280;63257;55.082;38.772;2022-09-09T12:35:54;100845.22;;;13.83;34.94
71948;BME280;63257;55.082;38.772;2022-09-09T12:38:38;100861.22;;;13.46;36.39
71948;BME280;63257;55.082;38.772;2022-09-09T12:41:06;100871.56;;;13.33;37.47
71948;BME280;63257;55.082;38.772;2022-09-09T12:43:31;100862.88;;;13.66;36.28
71948;BME280;63257;55.082;38.772;2022-09-09T12:46:06;100869.53;;;13.57;37.33
71948;BME280;63257;55.082;38.772;2022-09-09T12:48:36;100853.59;;;14.08;35.32
71948;BME280;63257;55.082;38.772;2022-09-09T12:51:03;100860.41;;;13.97;35.68
71948;BME280;63257;55.082;38.772;2022-09-09T12:56:00;100853.38;;;16.71;31.50
71948;BME280;63257;55.082;38.772;2022-09-09T12:58:29;100859.59;;;16.84;29.77
71948;BME280;63257;55.082;38.772;2022-09-09T13:00:59;100849.53;;;16.75;29.28
71948;BME280;63257;55.082;38.772;2022-09-09T13:03:27;100855.94;;;15.71;31.83
71948;BME280;63257;55.082;38.772;2022-09-09T13:05:53;100857.78;;;14.78;33.65
71948;BME280;63257;55.082;38.772;2022-09-09T13:08:26;100858.41;;;14.18;35.00
71948;BME280;63257;55.082;38.772;2022-09-09T13:10:57;100862.38;;;13.93;35.42
71948;BME280;63257;55.082;38.772;2022-09-09T13:13:51;100856.47;;;14.37;34.59
71948;BME280;63257;55.082;38.772;2022-09-09T13:16:23;100861.31;;;14.13;34.75
71948;BME280;63257;55.082;38.772;2022-09-09T13:18:52;100865.06;;;13.76;36.09
71948;BME280;63257;55.082;38.772;2022-09-09T13:21:18;100848.16;;;13.24;37.75
71948;BME280;63257;55.082;38.772;2022-09-09T13:23:49;100865.53;;;12.95;38.46
71948;BME280;63257;55.082;38.772;2022-09-09T13:26:24;100822.03;;;12.43;38.92
71948;BME280;63257;55.082;38.772;2022-09-09T13:28:53;100862.38;;;14.27;35.24
71948;BME280;63257;55.082;38.772;2022-09-09T13:31:29;100844.41;;;15.26;34.17
71948;BME280;63257;55.082;38.772;2022-09-09T13:33:57;100855.03;;;15.56;33.33
71948;BME280;63257;55.082;38.772;2022-09-09T13:36:31;100863.53;;;16.08;32.08
71948;BME280;63257;55.082;38.772;2022-09-09T13:38:59;100862.81;;;16.33;31.75
71948;BME280;63257;55.082;38.772;2022-09-09T13:43:55;100851.28;;;16.61;28.88
71948;BME280;63257;55.082;38.772;2022-09-09T13:52:02;100851.63;;;17.52;27.82
71948;BME280;63257;55.082;38.772;2022-09-09T13:54:28;100861.44;;;17.51;28.38
71948;BME280;63257;55.082;38.772;2022-09-09T13:56:56;100853.53;;;17.50;28.33
71948;BME280;63257;55.082;38.772;2022-09-09T13:59:25;100849.84;;;17.78;28.32
71948;BME280;63257;55.082;38.772;2022-09-09T14:01:52;100846.22;;;18.05;28.39
71948;BME280;63257;55.082;38.772;2022-09-09T14:04:19;100851.13;;;17.72;29.48
71948;BME280;63257;55.082;38.772;2022-09-09T14:06:49;100842.75;;;17.51;29.89
71948;BME280;63257;55.082;38.772;2022-09-09T14:09:16;100849.63;;;17.68;29.33
71948;BME280;63257;55.082;38.772;2022-09-09T14:11:44;100858.06;;;17.88;29.42
71948;BME280;63257;55.082;38.772;2022-09-09T14:14:14;100855.69;;;17.83;29.14
71948;BME280;63257;55.082;38.772;2022-09-09T14:16:40;100854.09;;;18.32;28.68
71948;BME280;63257;55.082;38.772;2022-09-09T14:19:08;100847.91;;;18.19;27.98
71948;BME280;63257;55.082;38.772;2022-09-09T14:21:34;100849.72;;;17.13;28.46
71948;BME280;63257;55.082;38.772;2022-09-09T14:24:02;100852.75;;;16.80;30.47
71948;BME280;63257;55.082;38.772;2022-09-09T14:26:31;100849.75;;;16.16;30.93
71948;BME280;63257;55.082;38.772;2022-09-09T14:28:57;100861.44;;;15.68;31.06
71948;BME280;63257;55.082;38.772;2022-09-09T14:31:24;100872.19;;;14.90;31.95
71948;BME280;63257;55.082;38.772;2022-09-09T14:33:51;100852.44;;;14.30;33.02
71948;BME280;63257;55.082;38.772;2022-09-09T14:36:18;100866.34;;;13.84;33.55
71948;BME280;63257;55.082;38.772;2022-09-09T14:38:44;100863.19;;;13.60;34.95
71948;BME280;63257;55.082;38.772;2022-09-09T14:41:12;100874.47;;;13.99;35.01
71948;BME280;63257;55.082;38.772;2022-09-09T14:43:39;100877.34;;;14.77;33.29
71948;BME280;63257;55.082;38.772;2022-09-09T14:46:06;100866.81;;;15.22;32.96
71948;BME280;63257;55.082;38.772;2022-09-09T14:48:34;100863.34;;;15.66;31.92
71948;BME280;63257;55.082;38.772;2022-09-09T14:51:08;100871.88;;;16.02;31.57
71948;BME280;63257;55.082;38.772;2022-09-09T14:53:34;100860.94;;;16.35;31.43
71948;BME280;63257;55.082;38.772;2022-09-09T14:56:08;100865.41;;;16.35;31.31
71948;BME280;63257;55.082;38.772;2022-09-09T14:58:36;100866.59;;;16.58;30.77
71948;BME280;63257;55.082;38.772;2022-09-09T15:01:05;100865.66;;;16.59;31.53
71948;BME280;63257;55.082;38.772;2022-09-09T15:03:31;100866.59;;;16.72;31.12
71948;BME280;63257;55.082;38.772;2022-09-09T15:05:57;100867.03;;;16.23;31.60
71948;BME280;63257;55.082;38.772;2022-09-09T15:08:24;100863.31;;;15.97;32.86
71948;BME280;63257;55.082;38.772;2022-09-09T15:10:58;100869.72;;;15.64;32.76
71948;BME280;63257;55.082;38.772;2022-09-09T15:13:26;100876.16;;;15.59;33.61
71948;BME280;63257;55.082;38.772;2022-09-09T15:15:52;100877.16;;;15.42;34.35